sensor_id;sensor_type;location;lat;lon;timestamp;pressure;altitude;pressure_sealevel;temperature;humidity
61039;BME280;46919;45.816;3.104;2024-03-29T00:00:53;95551.38;;;11.77;57.40
61039;BME280;46919;45.816;3.104;2024-03-29T00:03:18;95543.81;;;11.74;57.94
61039;BME280;46919;45.816;3.104;2024-03-29T00:05:43;95526.78;;;11.74;58.02
61039;BME280;46919;45.816;3.104;2024-03-29T00:08:09;95539.56;;;11.68;57.91
61039;BME280;46919;45.816;3.104;2024-03-29T00:10:34;95527.09;;;11.72;58.16
61039;BME280;46919;45.816;3.104;2024-03-29T00:13:00;95533.00;;;11.74;58.31
61039;BME280;46919;45.816;3.104;2024-03-29T00:15:25;95524.09;;;11.74;58.28
61039;BME280;46919;45.816;3.104;2024-03-29T00:17:50;95547.03;;;11.76;58.40
61039;BME280;46919;45.816;3.104;2024-03-29T00:20:16;95534.47;;;11.86;58.36
61039;BME280;46919;45.816;3.104;2024-03-29T00:22:42;95547.00;;;11.82;59.00
61039;BME280;46919;45.816;3.104;2024-03-29T00:25:07;95557.75;;;11.87;58.23
61039;BME280;46919;45.816;3.104;2024-03-29T00:27:33;95566.88;;;11.96;58.36
61039;BME280;46919;45.816;3.104;2024-03-29T00:29:58;95563.03;;;11.97;58.12
61039;BME280;46919;45.816;3.104;2024-03-29T00:32:25;95553.75;;;12.03;58.25
61039;BME280;46919;45.816;3.104;2024-03-29T00:34:52;95554.88;;;12.02;58.48
61039;BME280;46919;45.816;3.104;2024-03-29T00:37:18;95543.31;;;11.96;58.63
61039;BME280;46919;45.816;3.104;2024-03-29T00:39:43;95559.47;;;12.02;58.27
61039;BME280;46919;45.816;3.104;2024-03-29T00:42:09;95567.31;;;12.03;58.96
61039;BME280;46919;45.816;3.104;2024-03-29T00:44:38;95564.38;;;12.00;59.44
61039;BME280;46919;45.816;3.104;2024-03-29T00:47:07;95568.25;;;11.93;59.43
61039;BME280;46919;45.816;3.104;2024-03-29T00:49:33;95565.25;;;11.95;59.84
61039;BME280;46919;45.816;3.104;2024-03-29T00:51:59;95568.16;;;11.99;60.06
61039;BME280;46919;45.816;3.104;2024-03-29T00:54:24;95557.63;;;11.97;60.21
61039;BME280;46919;45.816;3.104;2024-03-29T00:56:50;95558.75;;;11.96;60.17
61039;BME280;46919;45.816;3.104;2024-03-29T00:59:16;95567.75;;;11.86;60.58
61039;BME280;46919;45.816;3.104;2024-03-29T01:01:42;95588.59;;;11.86;60.65
61039;BME280;46919;45.816;3.104;2024-03-29T01:04:07;95595.41;;;11.83;61.12
61039;BME280;46919;45.816;3.104;2024-03-29T01:06:33;95582.09;;;11.87;61.48
61039;BME280;46919;45.816;3.104;2024-03-29T01:09:00;95591.81;;;11.88;61.07
61039;BME280;46919;45.816;3.104;2024-03-29T01:11:25;95603.47;;;11.88;61.54
61039;BME280;46919;45.816;3.104;2024-03-29T01:13:50;95610.75;;;11.93;60.89
61039;BME280;46919;45.816;3.104;2024-03-29T01:16:16;95604.28;;;11.89;61.29
61039;BME280;46919;45.816;3.104;2024-03-29T01:18:41;95622.38;;;11.93;61.50
61039;BME280;46919;45.816;3.104;2024-03-29T01:21:08;95627.66;;;12.04;61.30
61039;BME280;46919;45.816;3.104;2024-03-29T01:23:34;95631.41;;;12.08;61.24
61039;BME280;46919;45.816;3.104;2024-03-29T01:25:59;95623.47;;;12.17;60.91
61039;BME280;46919;45.816;3.104;2024-03-29T01:28:25;95642.84;;;12.24;60.72
61039;BME280;46919;45.816;3.104;2024-03-29T01:30:53;95650.19;;;12.23;61.02
61039;BME280;46919;45.816;3.104;2024-03-29T01:33:20;95650.69;;;12.25;60.43
61039;BME280;46919;45.816;3.104;2024-03-29T01:35:46;95649.88;;;12.25;61.10
61039;BME280;46919;45.816;3.104;2024-03-29T01:38:12;95666.72;;;12.22;61.13
61039;BME280;46919;45.816;3.104;2024-03-29T01:40:37;95661.00;;;12.23;61.27
61039;BME280;46919;45.816;3.104;2024-03-29T01:43:03;95669.34;;;12.27;61.35
61039;BME280;46919;45.816;3.104;2024-03-29T01:45:29;95682.31;;;12.30;61.13
61039;BME280;46919;45.816;3.104;2024-03-29T01:47:56;95694.19;;;12.34;61.13
61039;BME280;46919;45.816;3.104;2024-03-29T01:50:21;95690.38;;;12.35;61.37
61039;BME280;46919;45.816;3.104;2024-03-29T01:52:47;95695.75;;;12.40;61.19
61039;BME280;46919;45.816;3.104;2024-03-29T01:55:13;95703.22;;;12.48;60.76
61039;BME280;46919;45.816;3.104;2024-03-29T01:57:39;95715.16;;;12.47;61.00
61039;BME280;46919;45.816;3.104;2024-03-29T02:00:06;95712.28;;;12.39;61.28
61039;BME280;46919;45.816;3.104;2024-03-29T02:02:33;95722.53;;;12.42;61.88
61039;BME280;46919;45.816;3.104;2024-03-29T02:04:58;95723.41;;;12.37;62.28
61039;BME280;46919;45.816;3.104;2024-03-29T02:07:24;95728.25;;;12.40;62.06
61039;BME280;46919;45.816;3.104;2024-03-29T02:09:50;95723.63;;;12.41;61.90
61039;BME280;46919;45.816;3.104;2024-03-29T02:12:15;95727.22;;;12.36;62.41
61039;BME280;46919;45.816;3.104;2024-03-29T02:14:41;95725.59;;;12.35;62.57
61039;BME280;46919;45.816;3.104;2024-03-29T02:17:08;95721.28;;;12.34;62.58
61039;BME280;46919;45.816;3.104;2024-03-29T02:19:33;95728.25;;;12.40;62.51
61039;BME280;46919;45.816;3.104;2024-03-29T02:21:59;95724.44;;;12.41;62.20
61039;BME280;46919;45.816;3.104;2024-03-29T02:24:26;95727.50;;;12.35;63.05
61039;BME280;46919;45.816;3.104;2024-03-29T02:26:54;95722.59;;;12.37;63.09
61039;BME280;46919;45.816;3.104;2024-03-29T02:29:21;95726.69;;;12.34;63.71
61039;BME280;46919;45.816;3.104;2024-03-29T02:31:46;95720.00;;;12.26;63.81
61039;BME280;46919;45.816;3.104;2024-03-29T02:34:12;95724.09;;;12.24;63.81
61039;BME280;46919;45.816;3.104;2024-03-29T02:36:38;95724.66;;;12.21;64.00
61039;BME280;46919;45.816;3.104;2024-03-29T02:39:03;95729.06;;;12.17;64.31
61039;BME280;46919;45.816;3.104;2024-03-29T02:41:28;95732.34;;;12.13;64.50
61039;BME280;46919;45.816;3.104;2024-03-29T02:43:55;95729.38;;;12.10;65.16
61039;BME280;46919;45.816;3.104;2024-03-29T02:46:21;95733.44;;;12.12;65.41
61039;BME280;46919;45.816;3.104;2024-03-29T02:48:46;95732.38;;;12.08;65.65
61039;BME280;46919;45.816;3.104;2024-03-29T02:51:12;95740.56;;;12.03;66.52
61039;BME280;46919;45.816;3.104;2024-03-29T02:53:37;95753.06;;;11.99;67.55
61039;BME280;46919;45.816;3.104;2024-03-29T02:56:04;95753.38;;;11.98;67.76
61039;BME280;46919;45.816;3.104;2024-03-29T02:58:30;95743.34;;;11.98;67.71
61039;BME280;46919;45.816;3.104;2024-03-29T03:00:55;95746.03;;;11.98;68.15
61039;BME280;46919;45.816;3.104;2024-03-29T03:03:26;95748.22;;;11.91;69.42
61039;BME280;46919;45.816;3.104;2024-03-29T03:05:52;95745.91;;;11.79;70.59
61039;BME280;46919;45.816;3.104;2024-03-29T03:08:20;95751.69;;;11.72;71.70
61039;BME280;46919;45.816;3.104;2024-03-29T03:11:04;95752.75;;;11.71;72.58
61039;BME280;46919;45.816;3.104;2024-03-29T03:13:30;95752.00;;;11.66;74.10
61039;BME280;46919;45.816;3.104;2024-03-29T03:15:56;95736.94;;;11.54;76.71
61039;BME280;46919;45.816;3.104;2024-03-29T03:18:21;95738.94;;;11.44;78.45
61039;BME280;46919;45.816;3.104;2024-03-29T03:20:51;95750.06;;;11.37;80.37
61039;BME280;46919;45.816;3.104;2024-03-29T03:23:17;95754.75;;;11.26;81.67
61039;BME280;46919;45.816;3.104;2024-03-29T03:25:42;95752.63;;;11.23;82.25
61039;BME280;46919;45.816;3.104;2024-03-29T03:28:07;95753.75;;;11.17;83.29
61039;BME280;46919;45.816;3.104;2024-03-29T03:30:38;95752.63;;;11.18;83.50
61039;BME280;46919;45.816;3.104;2024-03-29T03:33:03;95755.88;;;11.20;83.16
61039;BME280;46919;45.816;3.104;2024-03-29T03:35:28;95766.69;;;11.20;83.68
61039;BME280;46919;45.816;3.104;2024-03-29T03:37:54;95762.41;;;11.14;85.00
61039;BME280;46919;45.816;3.104;2024-03-29T03:40:21;95758.69;;;11.04;86.64
61039;BME280;46919;45.816;3.104;2024-03-29T03:42:47;95747.59;;;11.06;86.91
61039;BME280;46919;45.816;3.104;2024-03-29T03:45:12;95725.69;;;11.08;87.02
61039;BME280;46919;45.816;3.104;2024-03-29T03:47:38;95737.38;;;10.98;87.73
61039;BME280;46919;45.816;3.104;2024-03-29T03:50:04;95746.59;;;10.92;88.93
61039;BME280;46919;45.816;3.104;2024-03-29T03:52:29;95742.59;;;10.84;89.92
61039;BME280;46919;45.816;3.104;2024-03-29T03:54:55;95745.31;;;10.74;91.68
61039;BME280;46919;45.816;3.104;2024-03-29T03:57:21;95727.84;;;10.61;92.60
61039;BME280;46919;45.816;3.104;2024-03-29T03:59:46;95724.94;;;10.52;93.39
61039;BME280;46919;45.816;3.104;2024-03-29T04:02:12;95726.59;;;10.43;96.47
61039;BME280;46919;45.816;3.104;2024-03-29T04:04:37;95721.22;;;10.38;96.53
61039;BME280;46919;45.816;3.104;2024-03-29T04:07:03;95710.44;;;10.32;97.83
61039;BME280;46919;45.816;3.104;2024-03-29T04:09:28;95700.72;;;10.26;98.90
61039;BME280;46919;45.816;3.104;2024-03-29T04:11:54;95702.06;;;10.24;99.98
61039;BME280;46919;45.816;3.104;2024-03-29T04:14:19;95717.47;;;10.23;100.00
61039;BME280;46919;45.816;3.104;2024-03-29T04:16:46;95724.47;;;10.24;100.00
61039;BME280;46919;45.816;3.104;2024-03-29T04:19:11;95715.31;;;10.20;100.00
61039;BME280;46919;45.816;3.104;2024-03-29T04:21:37;95718.00;;;10.20;100.00
61039;BME280;46919;45.816;3.104;2024-03-29T04:24:02;95705.59;;;10.19;100.00
61039;BME280;46919;45.816;3.104;2024-03-29T04:26:28;95706.38;;;10.20;100.00
61039;BME280;46919;45.816;3.104;2024-03-29T04:28:53;95702.38;;;10.17;100.00
61039;BME280;46919;45.816;3.104;2024-03-29T04:31:18;95711.53;;;10.16;100.00
61039;BME280;46919;45.816;3.104;2024-03-29T04:33:44;95706.13;;;10.16;100.00
61039;BME280;46919;45.816;3.104;2024-03-29T04:36:09;95693.16;;;10.18;100.00
61039;BME280;46919;45.816;3.104;2024-03-29T04:38:35;95688.84;;;10.22;100.00
61039;BME280;46919;45.816;3.104;2024-03-29T04:41:00;95686.66;;;10.24;100.00
61039;BME280;46919;45.816;3.104;2024-03-29T04:43:27;95678.03;;;10.22;100.00
61039;BME280;46919;45.816;3.104;2024-03-29T04:46:22;95676.41;;;10.21;100.00
61039;BME280;46919;45.816;3.104;2024-03-29T04:48:47;95658.06;;;10.23;100.00
61039;BME280;46919;45.816;3.104;2024-03-29T04:51:12;95655.38;;;10.23;100.00
61039;BME280;46919;45.816;3.104;2024-03-29T04:53:39;95666.72;;;10.20;100.00
61039;BME280;46919;45.816;3.104;2024-03-29T04:56:05;95664.84;;;10.15;100.00
61039;BME280;46919;45.816;3.104;2024-03-29T04:58:31;95667.84;;;10.04;100.00
61039;BME280;46919;45.816;3.104;2024-03-29T05:00:56;95681.66;;;9.97;100.00
61039;BME280;46919;45.816;3.104;2024-03-29T05:03:23;95677.66;;;9.84;100.00
61039;BME280;46919;45.816;3.104;2024-03-29T05:05:52;95686.81;;;9.83;100.00
61039;BME280;46919;45.816;3.104;2024-03-29T05:08:18;95683.84;;;9.79;100.00
61039;BME280;46919;45.816;3.104;2024-03-29T05:10:45;95678.22;;;9.71;100.00
61039;BME280;46919;45.816;3.104;2024-03-29T05:13:11;95683.63;;;9.60;100.00
61039;BME280;46919;45.816;3.104;2024-03-29T05:15:37;95680.69;;;9.57;100.00
61039;BME280;46919;45.816;3.104;2024-03-29T05:18:03;95687.16;;;9.56;100.00
61039;BME280;46919;45.816;3.104;2024-03-29T05:20:29;95674.50;;;9.56;100.00
61039;BME280;46919;45.816;3.104;2024-03-29T05:22:54;95672.31;;;9.58;100.00
61039;BME280;46919;45.816;3.104;2024-03-29T05:25:20;95655.06;;;9.54;100.00
61039;BME280;46919;45.816;3.104;2024-03-29T05:27:45;95657.78;;;9.49;100.00
61039;BME280;46919;45.816;3.104;2024-03-29T05:30:11;95652.66;;;9.42;100.00
61039;BME280;46919;45.816;3.104;2024-03-29T05:32:36;95656.72;;;9.35;100.00
61039;BME280;46919;45.816;3.104;2024-03-29T05:35:02;95663.19;;;9.29;100.00
61039;BME280;46919;45.816;3.104;2024-03-29T05:37:27;95651.34;;;9.30;100.00
61039;BME280;46919;45.816;3.104;2024-03-29T05:39:53;95670.75;;;9.32;100.00
61039;BME280;46919;45.816;3.104;2024-03-29T05:42:27;95675.84;;;9.38;100.00
61039;BME280;46919;45.816;3.104;2024-03-29T05:44:53;95688.78;;;9.47;100.00
61039;BME280;46919;45.816;3.104;2024-03-29T05:47:19;95686.63;;;9.54;100.00
61039;BME280;46919;45.816;3.104;2024-03-29T05:49:44;95682.84;;;9.55;100.00
61039;BME280;46919;45.816;3.104;2024-03-29T05:52:10;95694.97;;;9.57;100.00
61039;BME280;46919;45.816;3.104;2024-03-29T05:54:39;95700.34;;;9.63;100.00
61039;BME280;46919;45.816;3.104;2024-03-29T05:57:04;95693.88;;;9.64;100.00
61039;BME280;46919;45.816;3.104;2024-03-29T05:59:32;95685.50;;;9.65;100.00
61039;BME280;46919;45.816;3.104;2024-03-29T06:01:57;95698.19;;;9.65;100.00
61039;BME280;46919;45.816;3.104;2024-03-29T06:04:23;95704.13;;;9.67;100.00
61039;BME280;46919;45.816;3.104;2024-03-29T06:06:56;95697.66;;;9.68;100.00
61039;BME280;46919;45.816;3.104;2024-03-29T06:09:23;95689.03;;;9.71;100.00
61039;BME280;46919;45.816;3.104;2024-03-29T06:11:48;95695.47;;;9.75;100.00
61039;BME280;46919;45.816;3.104;2024-03-29T06:14:14;95708.41;;;9.88;100.00
61039;BME280;46919;45.816;3.104;2024-03-29T06:16:39;95699.72;;;10.02;100.00
61039;BME280;46919;45.816;3.104;2024-03-29T06:19:23;95710.50;;;10.12;100.00
61039;BME280;46919;45.816;3.104;2024-03-29T06:21:48;95709.34;;;10.28;100.00
61039;BME280;46919;45.816;3.104;2024-03-29T06:24:14;95700.97;;;10.35;100.00
61039;BME280;46919;45.816;3.104;2024-03-29T06:26:40;95700.38;;;10.43;100.00
61039;BME280;46919;45.816;3.104;2024-03-29T06:29:07;95690.88;;;10.51;100.00
61039;BME280;46919;45.816;3.104;2024-03-29T06:31:35;95697.31;;;10.60;100.00
61039;BME280;46919;45.816;3.104;2024-03-29T06:34:00;95687.88;;;10.63;100.00
61039;BME280;46919;45.816;3.104;2024-03-29T06:36:26;95676.25;;;10.62;100.00
61039;BME280;46919;45.816;3.104;2024-03-29T06:38:54;95675.44;;;10.62;100.00
61039;BME280;46919;45.816;3.104;2024-03-29T06:41:20;95681.91;;;10.66;100.00
61039;BME280;46919;45.816;3.104;2024-03-29T06:43:45;95685.38;;;10.72;100.00
61039;BME280;46919;45.816;3.104;2024-03-29T06:46:11;95690.22;;;10.75;100.00
61039;BME280;46919;45.816;3.104;2024-03-29T06:48:37;95681.31;;;10.74;100.00
61039;BME280;46919;45.816;3.104;2024-03-29T06:51:03;95684.28;;;10.73;100.00
61039;BME280;46919;45.816;3.104;2024-03-29T06:53:28;95692.31;;;10.83;100.00
61039;BME280;46919;45.816;3.104;2024-03-29T06:55:55;95684.72;;;10.90;100.00
61039;BME280;46919;45.816;3.104;2024-03-29T06:58:21;95689.00;;;10.96;100.00
61039;BME280;46919;45.816;3.104;2024-03-29T07:00:47;95686.59;;;10.95;100.00
61039;BME280;46919;45.816;3.104;2024-03-29T07:03:16;95691.16;;;10.99;100.00
61039;BME280;46919;45.816;3.104;2024-03-29T07:05:45;95703.81;;;11.04;100.00
61039;BME280;46919;45.816;3.104;2024-03-29T07:08:11;95694.88;;;11.09;100.00
61039;BME280;46919;45.816;3.104;2024-03-29T07:10:36;95696.97;;;11.17;100.00
61039;BME280;46919;45.816;3.104;2024-03-29T07:13:02;95687.19;;;11.21;100.00
61039;BME280;46919;45.816;3.104;2024-03-29T07:15:27;95686.06;;;11.27;100.00
61039;BME280;46919;45.816;3.104;2024-03-29T07:17:53;95681.47;;;11.28;100.00
61039;BME280;46919;45.816;3.104;2024-03-29T07:20:19;95684.16;;;11.28;100.00
61039;BME280;46919;45.816;3.104;2024-03-29T07:22:44;95688.97;;;11.31;100.00
61039;BME280;46919;45.816;3.104;2024-03-29T07:25:11;95692.47;;;11.36;100.00
61039;BME280;46919;45.816;3.104;2024-03-29T07:27:36;95681.88;;;11.40;100.00
61039;BME280;46919;45.816;3.104;2024-03-29T07:30:03;95679.19;;;11.40;100.00
61039;BME280;46919;45.816;3.104;2024-03-29T07:32:33;95687.28;;;11.45;100.00
61039;BME280;46919;45.816;3.104;2024-03-29T07:34:58;95683.22;;;11.42;100.00
61039;BME280;46919;45.816;3.104;2024-03-29T07:37:25;95674.47;;;11.51;100.00
61039;BME280;46919;45.816;3.104;2024-03-29T07:39:50;95673.97;;;11.49;100.00
61039;BME280;46919;45.816;3.104;2024-03-29T07:42:16;95662.88;;;11.50;100.00
61039;BME280;46919;45.816;3.104;2024-03-29T07:44:42;95676.38;;;11.50;100.00
61039;BME280;46919;45.816;3.104;2024-03-29T07:47:08;95686.94;;;11.52;100.00
61039;BME280;46919;45.816;3.104;2024-03-29T07:49:33;95692.63;;;11.50;100.00
61039;BME280;46919;45.816;3.104;2024-03-29T07:51:59;95699.31;;;11.58;100.00
61039;BME280;46919;45.816;3.104;2024-03-29T07:54:27;95704.16;;;11.61;100.00
61039;BME280;46919;45.816;3.104;2024-03-29T07:56:52;95694.59;;;11.69;100.00
61039;BME280;46919;45.816;3.104;2024-03-29T07:59:18;95692.09;;;11.77;100.00
61039;BME280;46919;45.816;3.104;2024-03-29T08:01:45;95699.06;;;11.84;100.00
61039;BME280;46919;45.816;3.104;2024-03-29T08:04:10;95706.09;;;11.85;100.00
61039;BME280;46919;45.816;3.104;2024-03-29T08:06:35;95713.69;;;11.83;100.00
61039;BME280;46919;45.816;3.104;2024-03-29T08:09:01;95713.88;;;11.91;100.00
61039;BME280;46919;45.816;3.104;2024-03-29T08:11:27;95716.25;;;11.98;100.00
61039;BME280;46919;45.816;3.104;2024-03-29T08:13:52;95719.69;;;12.04;100.00
61039;BME280;46919;45.816;3.104;2024-03-29T08:16:18;95722.88;;;12.11;100.00
61039;BME280;46919;45.816;3.104;2024-03-29T08:18:45;95716.31;;;12.41;100.00
61039;BME280;46919;45.816;3.104;2024-03-29T08:21:11;95717.22;;;12.75;100.00
61039;BME280;46919;45.816;3.104;2024-03-29T08:23:41;95721.47;;;13.19;98.08
61039;BME280;46919;45.816;3.104;2024-03-29T08:26:10;95679.00;;;13.47;94.82
61039;BME280;46919;45.816;3.104;2024-03-29T08:28:35;95662.97;;;13.65;93.49
61039;BME280;46919;45.816;3.104;2024-03-29T08:31:06;95663.19;;;13.82;93.24
61039;BME280;46919;45.816;3.104;2024-03-29T08:33:34;95652.75;;;13.89;93.88
61039;BME280;46919;45.816;3.104;2024-03-29T08:36:05;95656.56;;;14.02;93.45
61039;BME280;46919;45.816;3.104;2024-03-29T08:38:31;95653.56;;;14.04;93.23
61039;BME280;46919;45.816;3.104;2024-03-29T08:40:57;95653.31;;;14.00;93.88
61039;BME280;46919;45.816;3.104;2024-03-29T08:43:23;95656.75;;;14.06;92.74
61039;BME280;46919;45.816;3.104;2024-03-29T08:45:48;95653.56;;;14.04;93.59
61039;BME280;46919;45.816;3.104;2024-03-29T08:48:14;95674.44;;;14.03;94.59
61039;BME280;46919;45.816;3.104;2024-03-29T08:50:39;95709.88;;;14.12;94.71
61039;BME280;46919;45.816;3.104;2024-03-29T08:53:05;95722.66;;;13.98;95.96
61039;BME280;46919;45.816;3.104;2024-03-29T08:55:31;95715.19;;;13.89;96.87
61039;BME280;46919;45.816;3.104;2024-03-29T08:58:00;95725.72;;;13.77;99.63
61039;BME280;46919;45.816;3.104;2024-03-29T09:00:28;95734.13;;;13.62;100.00
61039;BME280;46919;45.816;3.104;2024-03-29T09:02:54;95709.88;;;13.51;100.00
61039;BME280;46919;45.816;3.104;2024-03-29T09:05:22;95706.28;;;13.37;100.00
61039;BME280;46919;45.816;3.104;2024-03-29T09:07:48;95721.09;;;13.26;100.00
61039;BME280;46919;45.816;3.104;2024-03-29T09:10:14;95723.38;;;13.18;100.00
61039;BME280;46919;45.816;3.104;2024-03-29T09:12:40;95726.53;;;13.26;100.00
61039;BME280;46919;45.816;3.104;2024-03-29T09:15:06;95709.16;;;13.46;100.00
61039;BME280;46919;45.816;3.104;2024-03-29T09:17:41;95713.34;;;13.71;100.00
61039;BME280;46919;45.816;3.104;2024-03-29T09:20:07;95716.78;;;13.90;100.00
61039;BME280;46919;45.816;3.104;2024-03-29T09:22:34;95707.44;;;13.97;100.00
61039;BME280;46919;45.816;3.104;2024-03-29T09:24:59;95702.81;;;14.11;100.00
61039;BME280;46919;45.816;3.104;2024-03-29T09:27:26;95712.31;;;14.27;100.00
61039;BME280;46919;45.816;3.104;2024-03-29T09:29:52;95719.94;;;14.39;100.00
61039;BME280;46919;45.816;3.104;2024-03-29T09:32:19;95713.97;;;14.51;100.00
61039;BME280;46919;45.816;3.104;2024-03-29T09:34:46;95711.66;;;14.58;100.00
61039;BME280;46919;45.816;3.104;2024-03-29T09:37:11;95713.50;;;14.49;100.00
61039;BME280;46919;45.816;3.104;2024-03-29T09:39:37;95718.44;;;14.47;100.00
61039;BME280;46919;45.816;3.104;2024-03-29T09:42:03;95717.81;;;14.50;100.00
61039;BME280;46919;45.816;3.104;2024-03-29T09:44:32;95710.50;;;14.64;100.00
61039;BME280;46919;45.816;3.104;2024-03-29T09:47:04;95710.25;;;14.75;98.95
61039;BME280;46919;45.816;3.104;2024-03-29T09:49:33;95715.09;;;14.78;99.40
61039;BME280;46919;45.816;3.104;2024-03-29T09:51:59;95714.47;;;14.81;97.62
61039;BME280;46919;45.816;3.104;2024-03-29T09:54:27;95699.19;;;14.85;96.33
61039;BME280;46919;45.816;3.104;2024-03-29T09:56:55;95703.28;;;14.96;93.22
61039;BME280;46919;45.816;3.104;2024-03-29T09:59:22;95686.16;;;15.18;91.65
61039;BME280;46919;45.816;3.104;2024-03-29T10:01:48;95673.25;;;15.47;90.19
61039;BME280;46919;45.816;3.104;2024-03-29T10:04:15;95673.47;;;15.82;87.31
61039;BME280;46919;45.816;3.104;2024-03-29T10:06:44;95689.13;;;16.07;86.39
61039;BME280;46919;45.816;3.104;2024-03-29T10:09:11;95674.47;;;16.35;84.73
61039;BME280;46919;45.816;3.104;2024-03-29T10:11:37;95686.13;;;16.75;82.91
61039;BME280;46919;45.816;3.104;2024-03-29T10:14:02;95689.22;;;16.91;78.53
61039;BME280;46919;45.816;3.104;2024-03-29T10:16:30;95678.88;;;16.79;77.79
61039;BME280;46919;45.816;3.104;2024-03-29T10:18:58;95678.47;;;16.95;72.69
61039;BME280;46919;45.816;3.104;2024-03-29T10:21:26;95668.28;;;16.69;74.11
61039;BME280;46919;45.816;3.104;2024-03-29T10:23:52;95675.38;;;16.70;73.33
61039;BME280;46919;45.816;3.104;2024-03-29T10:26:18;95639.09;;;16.70;71.57
61039;BME280;46919;45.816;3.104;2024-03-29T10:28:46;95658.41;;;16.91;70.01
61039;BME280;46919;45.816;3.104;2024-03-29T10:31:12;95667.22;;;17.23;71.42
61039;BME280;46919;45.816;3.104;2024-03-29T10:33:39;95667.88;;;17.19;69.66
61039;BME280;46919;45.816;3.104;2024-03-29T10:36:04;95660.50;;;17.29;68.43
61039;BME280;46919;45.816;3.104;2024-03-29T10:38:31;95648.28;;;17.17;66.68
61039;BME280;46919;45.816;3.104;2024-03-29T10:40:57;95644.44;;;17.18;64.93
61039;BME280;46919;45.816;3.104;2024-03-29T10:43:23;95638.13;;;17.44;67.28
61039;BME280;46919;45.816;3.104;2024-03-29T10:45:50;95627.97;;;17.53;67.09
61039;BME280;46919;45.816;3.104;2024-03-29T10:48:26;95627.53;;;17.43;64.12
61039;BME280;46919;45.816;3.104;2024-03-29T10:50:56;95639.72;;;17.36;65.69
61039;BME280;46919;45.816;3.104;2024-03-29T10:53:23;95620.69;;;17.10;65.25
61039;BME280;46919;45.816;3.104;2024-03-29T10:55:56;95630.59;;;17.24;65.22
61039;BME280;46919;45.816;3.104;2024-03-29T10:58:25;95609.75;;;17.10;64.97
61039;BME280;46919;45.816;3.104;2024-03-29T11:00:57;95605.25;;;17.14;64.99
61039;BME280;46919;45.816;3.104;2024-03-29T11:03:41;95595.28;;;17.18;62.87
61039;BME280;46919;45.816;3.104;2024-03-29T11:06:12;95602.34;;;17.37;64.18
61039;BME280;46919;45.816;3.104;2024-03-29T11:08:39;95599.94;;;17.35;62.82
61039;BME280;46919;45.816;3.104;2024-03-29T11:11:11;95594.56;;;17.56;63.13
61039;BME280;46919;45.816;3.104;2024-03-29T11:16:08;95586.44;;;17.78;62.04
61039;BME280;46919;45.816;3.104;2024-03-29T11:18:35;95588.84;;;17.88;61.31
61039;BME280;46919;45.816;3.104;2024-03-29T11:21:02;95616.13;;;17.97;61.48
61039;BME280;46919;45.816;3.104;2024-03-29T11:23:31;95604.22;;;18.01;60.31
61039;BME280;46919;45.816;3.104;2024-03-29T11:25:57;95603.63;;;17.96;58.62
61039;BME280;46919;45.816;3.104;2024-03-29T11:28:32;95612.75;;;18.00;59.31
61039;BME280;46919;45.816;3.104;2024-03-29T11:31:06;95609.47;;;18.15;58.50
61039;BME280;46919;45.816;3.104;2024-03-29T11:33:34;95596.25;;;18.17;59.35
61039;BME280;46919;45.816;3.104;2024-03-29T11:36:13;95597.31;;;18.04;57.77
61039;BME280;46919;45.816;3.104;2024-03-29T11:38:41;95593.91;;;18.07;58.21
61039;BME280;46919;45.816;3.104;2024-03-29T11:41:16;95583.47;;;18.30;57.55
61039;BME280;46919;45.816;3.104;2024-03-29T11:43:42;95588.81;;;18.26;56.56
61039;BME280;46919;45.816;3.104;2024-03-29T11:46:12;95600.38;;;17.93;55.35
61039;BME280;46919;45.816;3.104;2024-03-29T11:48:39;95592.88;;;17.82;55.67
61039;BME280;46919;45.816;3.104;2024-03-29T11:51:06;95587.91;;;17.75;56.43
61039;BME280;46919;45.816;3.104;2024-03-29T11:53:32;95590.66;;;17.66;55.90
61039;BME280;46919;45.816;3.104;2024-03-29T11:56:02;95595.34;;;17.57;56.81
61039;BME280;46919;45.816;3.104;2024-03-29T11:58:30;95600.16;;;17.60;57.04
61039;BME280;46919;45.816;3.104;2024-03-29T12:00:57;95607.75;;;17.54;56.54
61039;BME280;46919;45.816;3.104;2024-03-29T12:03:27;95616.88;;;17.59;56.57
61039;BME280;46919;45.816;3.104;2024-03-29T12:05:54;95625.91;;;17.59;56.67
61039;BME280;46919;45.816;3.104;2024-03-29T12:08:24;95622.53;;;17.53;56.35
61039;BME280;46919;45.816;3.104;2024-03-29T12:10:49;95640.19;;;17.47;57.01
61039;BME280;46919;45.816;3.104;2024-03-29T12:13:16;95646.31;;;17.44;57.19
61039;BME280;46919;45.816;3.104;2024-03-29T12:15:43;95629.38;;;17.68;56.91
61039;BME280;46919;45.816;3.104;2024-03-29T12:18:08;95628.72;;;17.80;57.02
61039;BME280;46919;45.816;3.104;2024-03-29T12:20:45;95637.22;;;17.79;56.18
61039;BME280;46919;45.816;3.104;2024-03-29T12:23:16;95630.31;;;17.90;57.95
61039;BME280;46919;45.816;3.104;2024-03-29T12:25:42;95619.81;;;18.01;55.65
61039;BME280;46919;45.816;3.104;2024-03-29T12:28:09;95616.38;;;18.13;55.66
61039;BME280;46919;45.816;3.104;2024-03-29T12:30:34;95620.00;;;18.25;55.49
61039;BME280;46919;45.816;3.104;2024-03-29T12:35:34;95602.84;;;18.46;55.12
61039;BME280;46919;45.816;3.104;2024-03-29T12:38:00;95602.78;;;18.55;55.17
61039;BME280;46919;45.816;3.104;2024-03-29T12:40:27;95595.19;;;18.60;55.16
61039;BME280;46919;45.816;3.104;2024-03-29T12:42:55;95605.13;;;18.65;55.56
61039;BME280;46919;45.816;3.104;2024-03-29T12:45:22;95600.53;;;18.57;54.94
61039;BME280;46919;45.816;3.104;2024-03-29T12:47:48;95596.03;;;18.31;53.98
61039;BME280;46919;45.816;3.104;2024-03-29T12:50:34;95595.56;;;18.29;54.00
61039;BME280;46919;45.816;3.104;2024-03-29T12:53:06;95578.41;;;18.20;54.07
61039;BME280;46919;45.816;3.104;2024-03-29T12:55:32;95568.56;;;18.27;53.46
61039;BME280;46919;45.816;3.104;2024-03-29T12:58:01;95572.81;;;18.16;53.57
61039;BME280;46919;45.816;3.104;2024-03-29T13:00:28;95578.09;;;18.13;53.83